sensor_id;sensor_type;location;lat;lon;timestamp;temperature;humidity
35395;DHT22;21500;45.308;9.488;2023-06-10T00:00:43;22.10;99.90
35395;DHT22;21500;45.308;9.488;2023-06-10T00:03:10;22.10;99.90
35395;DHT22;21500;45.308;9.488;2023-06-10T00:05:36;22.00;99.90
35395;DHT22;21500;45.308;9.488;2023-06-10T00:08:05;22.00;99.90
35395;DHT22;21500;45.308;9.488;2023-06-10T00:10:35;22.00;99.90
35395;DHT22;21500;45.308;9.488;2023-06-10T00:13:03;22.00;99.90
35395;DHT22;21500;45.308;9.488;2023-06-10T00:15:29;22.00;99.90
35395;DHT22;21500;45.308;9.488;2023-06-10T00:17:55;22.00;99.90
35395;DHT22;21500;45.308;9.488;2023-06-10T00:20:22;22.00;99.90
35395;DHT22;21500;45.308;9.488;2023-06-10T00:22:51;22.00;99.90
35395;DHT22;21500;45.308;9.488;2023-06-10T00:25:18;22.00;99.90
35395;DHT22;21500;45.308;9.488;2023-06-10T00:27:44;22.00;99.90
35395;DHT22;21500;45.308;9.488;2023-06-10T00:30:10;21.90;99.90
35395;DHT22;21500;45.308;9.488;2023-06-10T00:32:37;22.00;99.90
35395;DHT22;21500;45.308;9.488;2023-06-10T00:35:03;21.90;99.90
35395;DHT22;21500;45.308;9.488;2023-06-10T00:37:31;21.90;99.90
35395;DHT22;21500;45.308;9.488;2023-06-10T00:39:57;21.90;99.90
35395;DHT22;21500;45.308;9.488;2023-06-10T00:42:26;21.90;99.90
35395;DHT22;21500;45.308;9.488;2023-06-10T00:44:51;21.90;99.90
35395;DHT22;21500;45.308;9.488;2023-06-10T00:47:17;21.80;99.90
35395;DHT22;21500;45.308;9.488;2023-06-10T00:49:44;21.80;99.90
35395;DHT22;21500;45.308;9.488;2023-06-10T00:52:10;21.80;99.90
35395;DHT22;21500;45.308;9.488;2023-06-10T00:54:37;21.80;99.90
35395;DHT22;21500;45.308;9.488;2023-06-10T00:57:04;21.80;99.90
35395;DHT22;21500;45.308;9.488;2023-06-10T00:59:31;21.80;99.90
35395;DHT22;21500;45.308;9.488;2023-06-10T01:01:57;21.80;99.90
35395;DHT22;21500;45.308;9.488;2023-06-10T01:04:23;21.80;99.90
35395;DHT22;21500;45.308;9.488;2023-06-10T01:07:09;21.70;99.90
35395;DHT22;21500;45.308;9.488;2023-06-10T01:09:54;21.70;99.90
35395;DHT22;21500;45.308;9.488;2023-06-10T01:12:49;21.60;99.90
35395;DHT22;21500;45.308;9.488;2023-06-10T01:15:20;21.60;99.90
35395;DHT22;21500;45.308;9.488;2023-06-10T01:18:17;21.50;99.90
35395;DHT22;21500;45.308;9.488;2023-06-10T01:20:44;21.60;99.90
35395;DHT22;21500;45.308;9.488;2023-06-10T01:23:11;21.60;99.90
35395;DHT22;21500;45.308;9.488;2023-06-10T01:25:39;21.60;99.90
35395;DHT22;21500;45.308;9.488;2023-06-10T01:31:21;21.50;99.90
35395;DHT22;21500;45.308;9.488;2023-06-10T01:33:53;21.60;99.90
35395;DHT22;21500;45.308;9.488;2023-06-10T01:36:21;21.50;99.90
35395;DHT22;21500;45.308;9.488;2023-06-10T01:38:50;21.40;99.90
35395;DHT22;21500;45.308;9.488;2023-06-10T01:41:17;21.40;99.90
35395;DHT22;21500;45.308;9.488;2023-06-10T01:43:44;21.40;99.90
35395;DHT22;21500;45.308;9.488;2023-06-10T01:46:13;21.40;99.90
35395;DHT22;21500;45.308;9.488;2023-06-10T01:48:40;21.30;99.90
35395;DHT22;21500;45.308;9.488;2023-06-10T01:51:06;21.30;99.90
35395;DHT22;21500;45.308;9.488;2023-06-10T01:53:32;21.30;99.90
35395;DHT22;21500;45.308;9.488;2023-06-10T01:55:58;21.30;99.90
35395;DHT22;21500;45.308;9.488;2023-06-10T01:58:24;21.30;99.90
35395;DHT22;21500;45.308;9.488;2023-06-10T02:00:50;21.30;99.90
35395;DHT22;21500;45.308;9.488;2023-06-10T02:03:16;21.30;99.90
35395;DHT22;21500;45.308;9.488;2023-06-10T02:05:42;21.30;99.90
35395;DHT22;21500;45.308;9.488;2023-06-10T02:08:07;21.20;99.90
35395;DHT22;21500;45.308;9.488;2023-06-10T02:10:33;21.20;99.90
35395;DHT22;21500;45.308;9.488;2023-06-10T02:12:59;21.20;99.90
35395;DHT22;21500;45.308;9.488;2023-06-10T02:15:25;21.10;99.90
35395;DHT22;21500;45.308;9.488;2023-06-10T02:17:51;21.10;99.90
35395;DHT22;21500;45.308;9.488;2023-06-10T02:20:17;21.10;99.90
35395;DHT22;21500;45.308;9.488;2023-06-10T02:22:43;21.10;99.90
35395;DHT22;21500;45.308;9.488;2023-06-10T02:25:09;21.10;99.90
35395;DHT22;21500;45.308;9.488;2023-06-10T02:27:37;21.10;99.90
35395;DHT22;21500;45.308;9.488;2023-06-10T02:30:03;21.10;99.90
35395;DHT22;21500;45.308;9.488;2023-06-10T02:32:31;21.00;99.90
35395;DHT22;21500;45.308;9.488;2023-06-10T02:34:57;21.00;99.90
35395;DHT22;21500;45.308;9.488;2023-06-10T02:37:24;21.10;99.90
35395;DHT22;21500;45.308;9.488;2023-06-10T02:39:51;21.10;99.90
35395;DHT22;21500;45.308;9.488;2023-06-10T02:42:16;21.00;99.90
35395;DHT22;21500;45.308;9.488;2023-06-10T02:44:42;21.00;99.90
35395;DHT22;21500;45.308;9.488;2023-06-10T02:47:13;21.00;99.90
35395;DHT22;21500;45.308;9.488;2023-06-10T02:49:39;20.90;99.90
35395;DHT22;21500;45.308;9.488;2023-06-10T02:52:06;20.90;99.90
35395;DHT22;21500;45.308;9.488;2023-06-10T02:54:33;20.90;99.90
35395;DHT22;21500;45.308;9.488;2023-06-10T02:56:59;20.90;99.90
35395;DHT22;21500;45.308;9.488;2023-06-10T02:59:27;20.90;99.90
35395;DHT22;21500;45.308;9.488;2023-06-10T03:01:54;20.90;99.90
35395;DHT22;21500;45.308;9.488;2023-06-10T03:04:21;21.00;99.90
35395;DHT22;21500;45.308;9.488;2023-06-10T03:06:57;20.90;99.90
35395;DHT22;21500;45.308;9.488;2023-06-10T03:09:29;20.90;99.90
35395;DHT22;21500;45.308;9.488;2023-06-10T03:11:57;20.90;99.90
35395;DHT22;21500;45.308;9.488;2023-06-10T03:14:23;20.80;99.90
35395;DHT22;21500;45.308;9.488;2023-06-10T03:16:51;20.80;99.90
35395;DHT22;21500;45.308;9.488;2023-06-10T03:19:17;20.80;99.90
35395;DHT22;21500;45.308;9.488;2023-06-10T03:21:49;20.80;99.90
35395;DHT22;21500;45.308;9.488;2023-06-10T03:24:19;20.90;99.90
35395;DHT22;21500;45.308;9.488;2023-06-10T03:26:45;20.90;99.90
35395;DHT22;21500;45.308;9.488;2023-06-10T03:29:11;20.90;99.90
35395;DHT22;21500;45.308;9.488;2023-06-10T03:31:37;20.90;99.90
35395;DHT22;21500;45.308;9.488;2023-06-10T03:34:06;20.90;99.90
35395;DHT22;21500;45.308;9.488;2023-06-10T03:36:32;20.80;99.90
35395;DHT22;21500;45.308;9.488;2023-06-10T03:38:58;20.80;99.90
35395;DHT22;21500;45.308;9.488;2023-06-10T03:41:25;20.90;99.90
35395;DHT22;21500;45.308;9.488;2023-06-10T03:43:51;20.80;99.90
35395;DHT22;21500;45.308;9.488;2023-06-10T03:46:17;20.70;99.90
35395;DHT22;21500;45.308;9.488;2023-06-10T03:48:44;20.80;99.90
35395;DHT22;21500;45.308;9.488;2023-06-10T03:51:10;20.90;99.90
35395;DHT22;21500;45.308;9.488;2023-06-10T03:53:36;20.90;99.90
35395;DHT22;21500;45.308;9.488;2023-06-10T03:56:02;20.90;99.90
35395;DHT22;21500;45.308;9.488;2023-06-10T03:58:29;20.80;99.90
35395;DHT22;21500;45.308;9.488;2023-06-10T04:00:55;20.80;99.90
35395;DHT22;21500;45.308;9.488;2023-06-10T04:03:30;20.90;99.90
35395;DHT22;21500;45.308;9.488;2023-06-10T04:05:57;20.90;99.90
35395;DHT22;21500;45.308;9.488;2023-06-10T04:08:25;20.80;99.90
35395;DHT22;21500;45.308;9.488;2023-06-10T04:10:51;20.80;99.90
35395;DHT22;21500;45.308;9.488;2023-06-10T04:13:17;20.80;99.90
35395;DHT22;21500;45.308;9.488;2023-06-10T04:15:52;20.80;99.90
35395;DHT22;21500;45.308;9.488;2023-06-10T04:18:18;20.80;99.90
35395;DHT22;21500;45.308;9.488;2023-06-10T04:20:45;20.80;99.90
35395;DHT22;21500;45.308;9.488;2023-06-10T04:23:12;20.80;99.90
35395;DHT22;21500;45.308;9.488;2023-06-10T04:25:40;20.80;99.90
35395;DHT22;21500;45.308;9.488;2023-06-10T04:28:07;20.80;99.90
35395;DHT22;21500;45.308;9.488;2023-06-10T04:30:33;20.80;99.90
35395;DHT22;21500;45.308;9.488;2023-06-10T04:32:59;20.90;99.90
35395;DHT22;21500;45.308;9.488;2023-06-10T04:35:25;20.90;99.90
35395;DHT22;21500;45.308;9.488;2023-06-10T04:37:54;20.80;99.90
35395;DHT22;21500;45.308;9.488;2023-06-10T04:40:22;20.90;99.90
35395;DHT22;21500;45.308;9.488;2023-06-10T04:42:48;20.90;99.90
35395;DHT22;21500;45.308;9.488;2023-06-10T04:45:14;20.90;99.90
35395;DHT22;21500;45.308;9.488;2023-06-10T04:47:41;20.80;99.90
35395;DHT22;21500;45.308;9.488;2023-06-10T04:50:09;20.80;99.90
35395;DHT22;21500;45.308;9.488;2023-06-10T04:52:34;20.90;99.90
35395;DHT22;21500;45.308;9.488;2023-06-10T04:55:00;20.90;99.90
35395;DHT22;21500;45.308;9.488;2023-06-10T04:57:26;20.90;99.90
35395;DHT22;21500;45.308;9.488;2023-06-10T04:59:52;20.90;99.90
35395;DHT22;21500;45.308;9.488;2023-06-10T05:02:18;20.90;99.90
35395;DHT22;21500;45.308;9.488;2023-06-10T05:04:44;20.80;99.90
35395;DHT22;21500;45.308;9.488;2023-06-10T05:07:12;20.90;99.90
35395;DHT22;21500;45.308;9.488;2023-06-10T05:09:37;20.80;99.90
35395;DHT22;21500;45.308;9.488;2023-06-10T05:12:04;20.80;99.90
35395;DHT22;21500;45.308;9.488;2023-06-10T05:14:30;20.80;99.90
35395;DHT22;21500;45.308;9.488;2023-06-10T05:16:57;20.80;99.90
35395;DHT22;21500;45.308;9.488;2023-06-10T05:19:23;20.70;99.90
35395;DHT22;21500;45.308;9.488;2023-06-10T05:21:49;20.70;99.90
35395;DHT22;21500;45.308;9.488;2023-06-10T05:24:14;20.60;99.90
35395;DHT22;21500;45.308;9.488;2023-06-10T05:26:40;20.80;99.90
35395;DHT22;21500;45.308;9.488;2023-06-10T05:29:07;20.80;99.90
35395;DHT22;21500;45.308;9.488;2023-06-10T05:31:34;20.70;99.90
35395;DHT22;21500;45.308;9.488;2023-06-10T05:34:00;20.80;99.90
35395;DHT22;21500;45.308;9.488;2023-06-10T05:36:26;20.80;99.90
35395;DHT22;21500;45.308;9.488;2023-06-10T05:38:52;20.70;99.90
35395;DHT22;21500;45.308;9.488;2023-06-10T05:41:18;20.70;99.90
35395;DHT22;21500;45.308;9.488;2023-06-10T05:43:44;20.70;99.90
35395;DHT22;21500;45.308;9.488;2023-06-10T05:46:10;20.60;99.90
35395;DHT22;21500;45.308;9.488;2023-06-10T05:48:36;20.70;99.90
35395;DHT22;21500;45.308;9.488;2023-06-10T05:51:01;20.60;99.90
35395;DHT22;21500;45.308;9.488;2023-06-10T05:53:27;20.60;99.90
35395;DHT22;21500;45.308;9.488;2023-06-10T05:55:53;20.70;99.90
35395;DHT22;21500;45.308;9.488;2023-06-10T05:58:23;20.70;99.90
35395;DHT22;21500;45.308;9.488;2023-06-10T06:00:49;20.70;99.90
35395;DHT22;21500;45.308;9.488;2023-06-10T06:03:15;20.70;99.90
35395;DHT22;21500;45.308;9.488;2023-06-10T06:05:41;20.90;99.90
35395;DHT22;21500;45.308;9.488;2023-06-10T06:08:08;20.90;99.90
35395;DHT22;21500;45.308;9.488;2023-06-10T06:10:34;21.00;99.90
35395;DHT22;21500;45.308;9.488;2023-06-10T06:13:02;21.00;99.90
35395;DHT22;21500;45.308;9.488;2023-06-10T06:15:28;20.90;99.90
35395;DHT22;21500;45.308;9.488;2023-06-10T06:17:54;20.90;99.90
35395;DHT22;21500;45.308;9.488;2023-06-10T06:20:20;20.90;99.90
35395;DHT22;21500;45.308;9.488;2023-06-10T06:22:46;20.90;99.90
35395;DHT22;21500;45.308;9.488;2023-06-10T06:25:13;20.90;99.90
35395;DHT22;21500;45.308;9.488;2023-06-10T06:27:40;20.90;99.90
35395;DHT22;21500;45.308;9.488;2023-06-10T06:30:06;20.90;99.90
35395;DHT22;21500;45.308;9.488;2023-06-10T06:32:32;20.80;99.90
35395;DHT22;21500;45.308;9.488;2023-06-10T06:34:58;20.90;99.90
35395;DHT22;21500;45.308;9.488;2023-06-10T06:37:25;20.80;99.90
35395;DHT22;21500;45.308;9.488;2023-06-10T06:40:00;20.90;99.90
35395;DHT22;21500;45.308;9.488;2023-06-10T06:42:26;20.90;99.90
35395;DHT22;21500;45.308;9.488;2023-06-10T06:45:10;21.00;99.90
35395;DHT22;21500;45.308;9.488;2023-06-10T06:47:37;21.10;99.90
35395;DHT22;21500;45.308;9.488;2023-06-10T06:50:03;21.20;99.90
35395;DHT22;21500;45.308;9.488;2023-06-10T06:52:29;21.10;99.90
35395;DHT22;21500;45.308;9.488;2023-06-10T06:54:55;21.10;99.90
35395;DHT22;21500;45.308;9.488;2023-06-10T06:57:21;21.30;99.90
35395;DHT22;21500;45.308;9.488;2023-06-10T06:59:46;21.40;99.90
35395;DHT22;21500;45.308;9.488;2023-06-10T07:02:21;21.40;99.90
35395;DHT22;21500;45.308;9.488;2023-06-10T07:04:47;21.20;99.90
35395;DHT22;21500;45.308;9.488;2023-06-10T07:07:15;21.00;99.90
35395;DHT22;21500;45.308;9.488;2023-06-10T07:09:41;20.90;99.90
35395;DHT22;21500;45.308;9.488;2023-06-10T07:12:08;21.00;99.90
35395;DHT22;21500;45.308;9.488;2023-06-10T07:14:34;21.20;99.90
35395;DHT22;21500;45.308;9.488;2023-06-10T07:17:00;21.30;99.90
35395;DHT22;21500;45.308;9.488;2023-06-10T07:19:26;21.30;99.90
35395;DHT22;21500;45.308;9.488;2023-06-10T07:21:52;21.10;99.90
35395;DHT22;21500;45.308;9.488;2023-06-10T07:24:17;21.30;99.90
35395;DHT22;21500;45.308;9.488;2023-06-10T07:26:46;21.40;99.90
35395;DHT22;21500;45.308;9.488;2023-06-10T07:29:12;21.30;99.90
35395;DHT22;21500;45.308;9.488;2023-06-10T07:31:38;21.40;99.90
35395;DHT22;21500;45.308;9.488;2023-06-10T07:34:04;21.50;99.90
35395;DHT22;21500;45.308;9.488;2023-06-10T07:36:32;21.40;99.90
35395;DHT22;21500;45.308;9.488;2023-06-10T07:38:58;21.50;99.90
35395;DHT22;21500;45.308;9.488;2023-06-10T07:41:24;21.60;99.90
35395;DHT22;21500;45.308;9.488;2023-06-10T07:43:52;21.60;99.90
35395;DHT22;21500;45.308;9.488;2023-06-10T07:46:23;21.60;99.90
35395;DHT22;21500;45.308;9.488;2023-06-10T07:48:50;21.60;99.90
35395;DHT22;21500;45.308;9.488;2023-06-10T07:51:16;21.90;99.90
35395;DHT22;21500;45.308;9.488;2023-06-10T07:53:42;22.00;99.90
35395;DHT22;21500;45.308;9.488;2023-06-10T07:56:08;21.70;99.90
35395;DHT22;21500;45.308;9.488;2023-06-10T07:58:34;21.80;99.90
35395;DHT22;21500;45.308;9.488;2023-06-10T08:01:00;21.90;99.90
35395;DHT22;21500;45.308;9.488;2023-06-10T08:03:26;22.10;99.90
35395;DHT22;21500;45.308;9.488;2023-06-10T08:05:52;22.30;99.90
35395;DHT22;21500;45.308;9.488;2023-06-10T08:08:17;22.40;99.90
35395;DHT22;21500;45.308;9.488;2023-06-10T08:10:43;22.10;99.90
35395;DHT22;21500;45.308;9.488;2023-06-10T08:13:09;22.20;99.90
35395;DHT22;21500;45.308;9.488;2023-06-10T08:15:37;22.40;99.90
35395;DHT22;21500;45.308;9.488;2023-06-10T08:18:03;22.60;99.90
35395;DHT22;21500;45.308;9.488;2023-06-10T08:20:29;22.40;99.90
35395;DHT22;21500;45.308;9.488;2023-06-10T08:22:55;22.60;99.90
35395;DHT22;21500;45.308;9.488;2023-06-10T08:25:21;22.70;99.90
35395;DHT22;21500;45.308;9.488;2023-06-10T08:27:52;22.70;99.90
35395;DHT22;21500;45.308;9.488;2023-06-10T08:30:18;22.70;99.90
35395;DHT22;21500;45.308;9.488;2023-06-10T08:32:43;22.60;99.90
35395;DHT22;21500;45.308;9.488;2023-06-10T08:35:12;22.40;99.90
35395;DHT22;21500;45.308;9.488;2023-06-10T08:37:38;22.40;99.90
35395;DHT22;21500;45.308;9.488;2023-06-10T08:40:04;22.40;99.90
35395;DHT22;21500;45.308;9.488;2023-06-10T08:42:41;22.60;99.90
35395;DHT22;21500;45.308;9.488;2023-06-10T08:45:14;22.80;99.90
35395;DHT22;21500;45.308;9.488;2023-06-10T08:47:44;22.70;99.90
35395;DHT22;21500;45.308;9.488;2023-06-10T08:50:11;22.50;99.90
35395;DHT22;21500;45.308;9.488;2023-06-10T08:52:38;22.60;99.90
35395;DHT22;21500;45.308;9.488;2023-06-10T08:55:18;22.70;99.90
35395;DHT22;21500;45.308;9.488;2023-06-10T08:57:48;22.90;99.90
35395;DHT22;21500;45.308;9.488;2023-06-10T09:00:16;22.90;99.90
35395;DHT22;21500;45.308;9.488;2023-06-10T09:02:43;23.00;99.90
35395;DHT22;21500;45.308;9.488;2023-06-10T09:05:09;23.10;99.90
35395;DHT22;21500;45.308;9.488;2023-06-10T09:07:36;23.10;99.90
35395;DHT22;21500;45.308;9.488;2023-06-10T09:10:03;22.70;99.90
35395;DHT22;21500;45.308;9.488;2023-06-10T09:12:35;22.90;99.90
35395;DHT22;21500;45.308;9.488;2023-06-10T09:15:01;23.10;99.90
35395;DHT22;21500;45.308;9.488;2023-06-10T09:17:28;23.30;99.90
35395;DHT22;21500;45.308;9.488;2023-06-10T09:19:54;23.40;99.90
35395;DHT22;21500;45.308;9.488;2023-06-10T09:22:23;23.20;99.90
35395;DHT22;21500;45.308;9.488;2023-06-10T09:24:49;23.10;99.90
35395;DHT22;21500;45.308;9.488;2023-06-10T09:27:15;23.40;99.90
35395;DHT22;21500;45.308;9.488;2023-06-10T09:29:53;23.50;99.90
35395;DHT22;21500;45.308;9.488;2023-06-10T09:32:20;23.50;99.90
35395;DHT22;21500;45.308;9.488;2023-06-10T09:34:47;23.30;99.90
35395;DHT22;21500;45.308;9.488;2023-06-10T09:37:13;23.50;99.90
35395;DHT22;21500;45.308;9.488;2023-06-10T09:39:45;23.30;99.90
35395;DHT22;21500;45.308;9.488;2023-06-10T09:42:25;23.50;99.90
35395;DHT22;21500;45.308;9.488;2023-06-10T09:44:52;23.40;99.90
35395;DHT22;21500;45.308;9.488;2023-06-10T09:47:21;23.40;99.90
35395;DHT22;21500;45.308;9.488;2023-06-10T09:49:51;23.20;99.90
35395;DHT22;21500;45.308;9.488;2023-06-10T09:52:28;23.30;99.90
35395;DHT22;21500;45.308;9.488;2023-06-10T09:55:00;23.30;99.90
35395;DHT22;21500;45.308;9.488;2023-06-10T09:57:30;23.30;99.90
35395;DHT22;21500;45.308;9.488;2023-06-10T09:59:58;23.20;99.90
35395;DHT22;21500;45.308;9.488;2023-06-10T10:02:23;23.40;99.90
35395;DHT22;21500;45.308;9.488;2023-06-10T10:04:49;23.50;99.90
35395;DHT22;21500;45.308;9.488;2023-06-10T10:07:15;23.40;99.90
35395;DHT22;21500;45.308;9.488;2023-06-10T10:09:42;23.40;99.90
35395;DHT22;21500;45.308;9.488;2023-06-10T10:12:13;23.40;99.90
35395;DHT22;21500;45.308;9.488;2023-06-10T10:14:45;23.40;99.90
35395;DHT22;21500;45.308;9.488;2023-06-10T10:17:11;23.40;99.90
35395;DHT22;21500;45.308;9.488;2023-06-10T10:19:53;23.50;99.90
35395;DHT22;21500;45.308;9.488;2023-06-10T10:22:24;23.50;99.90
35395;DHT22;21500;45.308;9.488;2023-06-10T10:24:53;23.50;99.90
35395;DHT22;21500;45.308;9.488;2023-06-10T10:27:36;23.60;99.90
35395;DHT22;21500;45.308;9.488;2023-06-10T10:30:05;23.70;99.90
35395;DHT22;21500;45.308;9.488;2023-06-10T10:33:06;23.70;99.90
35395;DHT22;21500;45.308;9.488;2023-06-10T10:35:36;23.50;99.90
35395;DHT22;21500;45.308;9.488;2023-06-10T10:38:02;23.50;99.90
35395;DHT22;21500;45.308;9.488;2023-06-10T10:40:29;23.50;99.90
35395;DHT22;21500;45.308;9.488;2023-06-10T10:42:56;23.40;99.90
35395;DHT22;21500;45.308;9.488;2023-06-10T10:45:23;23.40;99.90
35395;DHT22;21500;45.308;9.488;2023-06-10T10:47:53;23.40;99.90
35395;DHT22;21500;45.308;9.488;2023-06-10T10:50:20;23.60;99.90
35395;DHT22;21500;45.308;9.488;2023-06-10T10:53:01;23.80;99.90
35395;DHT22;21500;45.308;9.488;2023-06-10T10:55:27;23.90;99.90
35395;DHT22;21500;45.308;9.488;2023-06-10T11:00:37;23.60;99.90
35395;DHT22;21500;45.308;9.488;2023-06-10T11:03:06;23.60;99.90
35395;DHT22;21500;45.308;9.488;2023-06-10T11:05:47;23.60;99.90
35395;DHT22;21500;45.308;9.488;2023-06-10T11:11:23;24.00;99.90
35395;DHT22;21500;45.308;9.488;2023-06-10T11:14:28;24.10;99.90
35395;DHT22;21500;45.308;9.488;2023-06-10T11:16:58;23.90;99.90
35395;DHT22;21500;45.308;9.488;2023-06-10T11:19:37;24.10;99.90
35395;DHT22;21500;45.308;9.488;2023-06-10T11:22:07;23.80;99.90
35395;DHT22;21500;45.308;9.488;2023-06-10T11:24:35;24.30;99.90
35395;DHT22;21500;45.308;9.488;2023-06-10T11:27:21;24.50;99.90
35395;DHT22;21500;45.308;9.488;2023-06-10T11:32:33;24.20;99.90
35395;DHT22;21500;45.308;9.488;2023-06-10T11:35:02;24.40;99.90
35395;DHT22;21500;45.308;9.488;2023-06-10T11:37:29;24.50;99.90
35395;DHT22;21500;45.308;9.488;2023-06-10T11:39:55;24.90;99.90
35395;DHT22;21500;45.308;9.488;2023-06-10T11:42:25;25.20;99.90
35395;DHT22;21500;45.308;9.488;2023-06-10T11:44:52;24.90;99.90
35395;DHT22;21500;45.308;9.488;2023-06-10T11:47:20;25.20;99.90
35395;DHT22;21500;45.308;9.488;2023-06-10T11:49:56;24.90;99.90
35395;DHT22;21500;45.308;9.488;2023-06-10T11:52:30;25.10;99.90
35395;DHT22;21500;45.308;9.488;2023-06-10T11:54:58;25.40;99.90
35395;DHT22;21500;45.308;9.488;2023-06-10T11:57:24;25.40;99.90
35395;DHT22;21500;45.308;9.488;2023-06-10T11:59:50;25.70;99.90
35395;DHT22;21500;45.308;9.488;2023-06-10T12:02:17;26.10;99.90
35395;DHT22;21500;45.308;9.488;2023-06-10T12:04:43;26.50;99.90
35395;DHT22;21500;45.308;9.488;2023-06-10T12:07:08;25.90;99.90
35395;DHT22;21500;45.308;9.488;2023-06-10T12:09:42;25.80;99.90
35395;DHT22;21500;45.308;9.488;2023-06-10T12:12:08;25.20;99.90
35395;DHT22;21500;45.308;9.488;2023-06-10T12:14:54;25.00;99.90
35395;DHT22;21500;45.308;9.488;2023-06-10T12:19:58;25.10;99.90
35395;DHT22;21500;45.308;9.488;2023-06-10T12:22:25;25.30;99.90
35395;DHT22;21500;45.308;9.488;2023-06-10T12:25:12;25.70;99.90
35395;DHT22;21500;45.308;9.488;2023-06-10T12:27:41;26.20;99.90
35395;DHT22;21500;45.308;9.488;2023-06-10T12:30:19;26.30;99.90
35395;DHT22;21500;45.308;9.488;2023-06-10T12:32:46;26.60;99.90
35395;DHT22;21500;45.308;9.488;2023-06-10T12:35:21;26.50;99.90
35395;DHT22;21500;45.308;9.488;2023-06-10T12:38:09;26.60;99.90
35395;DHT22;21500;45.308;9.488;2023-06-10T12:40:44;26.90;99.90
35395;DHT22;21500;45.308;9.488;2023-06-10T12:43:10;26.90;99.90
35395;DHT22;21500;45.308;9.488;2023-06-10T12:45:42;27.00;99.90
35395;DHT22;21500;45.308;9.488;2023-06-10T12:48:28;26.30;99.90
35395;DHT22;21500;45.308;9.488;2023-06-10T12:50:57;25.80;99.90
35395;DHT22;21500;45.308;9.488;2023-06-10T12:53:26;25.60;99.90
35395;DHT22;21500;45.308;9.488;2023-06-10T12:55:53;26.10;99.90
35395;DHT22;21500;45.308;9.488;2023-06-10T12:58:20;26.50;99.90
35395;DHT22;21500;45.308;9.488;2023-06-10T13:00:49;26.60;99.90
35395;DHT22;21500;45.308;9.488;2023-06-10T13:03:20;26.50;99.90
35395;DHT22;21500;45.308;9.488;2023-06-10T13:05:54;26.60;99.90
35395;DHT22;21500;45.308;9.488;2023-06-10T13:08:51;26.60;99.90
35395;DHT22;21500;45.308;9.488;2023-06-10T13:11:29;26.50;99.90
35395;DHT22;21500;45.308;9.488;2023-06-10T13:14:19;27.00;99.90
35395;DHT22;21500;45.308;9.488;2023-06-10T13:51:44;27.30;99.90
35395;DHT22;21500;45.308;9.488;2023-06-10T13:54:11;26.60;99.90
35395;DHT22;21500;45.308;9.488;2023-06-10T13:56:42;26.70;99.90
35395;DHT22;21500;45.308;9.488;2023-06-10T13:59:11;26.60;99.90
35395;DHT22;21500;45.308;9.488;2023-06-10T14:01:37;27.00;99.90
35395;DHT22;21500;45.308;9.488;2023-06-10T14:04:06;27.40;99.90
35395;DHT22;21500;45.308;9.488;2023-06-10T14:06:33;27.90;99.90
35395;DHT22;21500;45.308;9.488;2023-06-10T14:09:00;28.10;99.90
35395;DHT22;21500;45.308;9.488;2023-06-10T14:11:26;27.90;99.90
35395;DHT22;21500;45.308;9.488;2023-06-10T14:13:52;27.80;99.90
35395;DHT22;21500;45.308;9.488;2023-06-10T14:16:18;27.60;99.90
35395;DHT22;21500;45.308;9.488;2023-06-10T14:18:45;27.70;99.90
35395;DHT22;21500;45.308;9.488;2023-06-10T14:21:11;27.80;99.90
35395;DHT22;21500;45.308;9.488;2023-06-10T14:23:37;27.60;99.90
35395;DHT22;21500;45.308;9.488;2023-06-10T14:26:03;27.60;99.90
35395;DHT22;21500;45.308;9.488;2023-06-10T14:28:31;27.30;99.90
35395;DHT22;21500;45.308;9.488;2023-06-10T14:30:56;27.10;99.90
35395;DHT22;21500;45.308;9.488;2023-06-10T14:33:25;27.30;99.90
35395;DHT22;21500;45.308;9.488;2023-06-10T14:35:51;27.40;99.90
35395;DHT22;21500;45.308;9.488;2023-06-10T14:38:16;27.50;99.90
35395;DHT22;21500;45.308;9.488;2023-06-10T14:40:42;27.10;99.90
35395;DHT22;21500;45.308;9.488;2023-06-10T14:43:08;26.90;99.90
35395;DHT22;21500;45.308;9.488;2023-06-10T14:45:39;27.10;99.90
35395;DHT22;21500;45.308;9.488;2023-06-10T14:48:06;27.10;99.90
35395;DHT22;21500;45.308;9.488;2023-06-10T14:50:35;27.00;99.90
35395;DHT22;21500;45.308;9.488;2023-06-10T14:53:01;26.90;99.90
35395;DHT22;21500;45.308;9.488;2023-06-10T14:55:28;26.80;99.90
35395;DHT22;21500;45.308;9.488;2023-06-10T14:57:55;26.90;99.90
35395;DHT22;21500;45.308;9.488;2023-06-10T15:00:22;27.60;99.90
35395;DHT22;21500;45.308;9.488;2023-06-10T15:02:50;27.50;99.90
35395;DHT22;21500;45.308;9.488;2023-06-10T15:05:16;27.30;99.90
35395;DHT22;21500;45.308;9.488;2023-06-10T15:07:58;26.90;99.90
35395;DHT22;21500;45.308;9.488;2023-06-10T15:10:26;27.00;99.90
35395;DHT22;21500;45.308;9.488;2023-06-10T15:13:05;27.40;99.90
35395;DHT22;21500;45.308;9.488;2023-06-10T15:15:32;27.70;99.90
35395;DHT22;21500;45.308;9.488;2023-06-10T15:17:58;28.00;99.90
35395;DHT22;21500;45.308;9.488;2023-06-10T15:20:24;28.20;99.80
35395;DHT22;21500;45.308;9.488;2023-06-10T15:22:49;28.50;99.30
35395;DHT22;21500;45.308;9.488;2023-06-10T15:25:15;28.10;99.80
35395;DHT22;21500;45.308;9.488;2023-06-10T15:27:41;28.20;99.10
35395;DHT22;21500;45.308;9.488;2023-06-10T15:30:07;28.40;98.70
35395;DHT22;21500;45.308;9.488;2023-06-10T15:32:33;27.80;99.00
35395;DHT22;21500;45.308;9.488;2023-06-10T15:34:59;27.90;99.00
35395;DHT22;21500;45.308;9.488;2023-06-10T15:37:25;28.10;99.40
35395;DHT22;21500;45.308;9.488;2023-06-10T15:39:51;27.90;99.50
35395;DHT22;21500;45.308;9.488;2023-06-10T15:42:16;27.80;99.80
35395;DHT22;21500;45.308;9.488;2023-06-10T15:44:42;27.80;99.90
35395;DHT22;21500;45.308;9.488;2023-06-10T15:47:08;27.50;99.90
35395;DHT22;21500;45.308;9.488;2023-06-10T15:49:34;27.80;99.90
35395;DHT22;21500;45.308;9.488;2023-06-10T15:52:00;28.00;99.90
35395;DHT22;21500;45.308;9.488;2023-06-10T15:54:27;28.10;99.90
35395;DHT22;21500;45.308;9.488;2023-06-10T15:56:52;27.50;99.90
35395;DHT22;21500;45.308;9.488;2023-06-10T15:59:18;27.30;99.90
35395;DHT22;21500;45.308;9.488;2023-06-10T16:01:44;27.30;99.90
35395;DHT22;21500;45.308;9.488;2023-06-10T16:04:10;27.40;99.90
35395;DHT22;21500;45.308;9.488;2023-06-10T16:06:35;27.60;99.90
35395;DHT22;21500;45.308;9.488;2023-06-10T16:09:01;27.50;99.90
35395;DHT22;21500;45.308;9.488;2023-06-10T16:11:27;27.60;99.90
35395;DHT22;21500;45.308;9.488;2023-06-10T16:13:53;27.60;99.90
35395;DHT22;21500;45.308;9.488;2023-06-10T16:16:19;27.80;99.90
35395;DHT22;21500;45.308;9.488;2023-06-10T16:18:44;27.80;99.90
35395;DHT22;21500;45.308;9.488;2023-06-10T16:21:10;28.00;99.90
35395;DHT22;21500;45.308;9.488;2023-06-10T16:23:36;28.10;99.90
35395;DHT22;21500;45.308;9.488;2023-06-10T16:26:04;28.20;99.90